Nuno Pinto — CURJ9 — position and weather

sailwx.info

Track history (hours):
 
Tides and Currents Weather Stations Pressure Air Temp Water Temp Dewpoint Dewpoint Depression Visibility Wind Speed Wind Dir Waves Ship Positions

Nuno Pinto

Last reported at 2018-Feb-25 09:45 UTC. Time now 2018-Feb-25 16:05 UTC.
Position N 36°47' W 008°16'.

Length 23 m.

Type: Fishing. MMSI: 263401250.

Date/timePositionNaut miles runAvg speedWind from/ knotsBaromVisibWave heightAir tempDewpointWater temp
2018-Feb-25 09:45N 36°47' W 008°16'1 3.3
2018-Feb-25 09:23N 36°48' W 008°14'2 3.3
2018-Feb-25 08:41N 36°48' W 008°11'2 3.2
2018-Feb-25 08:08N 36°48' W 008°09'1 3.6
2018-Feb-25 07:59N 36°48' W 008°08'0 0.0
2018-Feb-23 04:12N 36°48' W 008°09'3 8.8
2018-Feb-23 03:50N 36°50' W 008°12'3 8.8
2018-Feb-23 03:30N 36°52' W 008°14'4 8.9
2018-Feb-23 03:00N 36°55' W 008°18'5 9.1
2018-Feb-23 02:30N 36°58' W 008°22'5 9.1
2018-Feb-23 02:00N 37°02' W 008°27'6 9.1
2018-Feb-23 01:21N 37°06' W 008°32'2 5.0
2018-Feb-23 00:57N 37°08' W 008°32'0 0.0
2018-Feb-23 00:28N 37°08' W 008°32'0 0.0
2018-Feb-22 23:59N 37°08' W 008°32'0 0.0
2018-Feb-22 23:29N 37°08' W 008°32'0 0.1
2018-Feb-22 23:00N 37°08' W 008°32'0 0.0
2018-Feb-22 22:30N 37°08' W 008°32'0 0.0
2018-Feb-22 22:00N 37°08' W 008°32'0 0.0
2018-Feb-22 21:30N 37°08' W 008°32'0 0.0
2018-Feb-22 21:00N 37°08' W 008°32'0 0.0
2018-Feb-22 20:30N 37°08' W 008°32'0 0.0
2018-Feb-22 20:00N 37°08' W 008°32'0 0.0
2018-Feb-22 19:30N 37°08' W 008°32'0 0.1
2018-Feb-22 19:00N 37°08' W 008°32'0 0.0
2018-Feb-22 18:30N 37°08' W 008°32'0 0.0
2018-Feb-22 18:00N 37°08' W 008°32'0 0.0
2018-Feb-22 17:30N 37°08' W 008°32'1 1.5
2018-Feb-22 17:00N 37°07' W 008°32'5 9.1
2018-Feb-22 16:30N 37°04' W 008°35'5 9.3
2018-Feb-22 16:00N 37°00' W 008°39'5 9.3
2018-Feb-22 15:30N 36°57' W 008°43'7 9.1
2018-Feb-22 14:46N 36°51' W 008°48'2 4.0
2018-Feb-22 14:14N 36°50' W 008°50'0 0.7
2018-Feb-22 13:59N 36°50' W 008°49'4 2.7
2018-Feb-22 12:36N 36°49' W 008°45'1 9.3
2018-Feb-22 12:30N 36°49' W 008°44'3 0.3
2018-Feb-22 04:56N 36°47' W 008°46'2 3.1
2018-Feb-22 04:28N 36°47' W 008°44'3 0.1
2018-Feb-21 09:36N 36°49' W 008°46'0 3.0
2018-Feb-21 09:29N 36°49' W 008°46'2 3.1
2018-Feb-21 09:00N 36°49' W 008°44'2 3.3
2018-Feb-21 08:29N 36°48' W 008°42'2 3.2
2018-Feb-21 08:00N 36°48' W 008°40'2 3.0
2018-Feb-21 07:11N 36°48' W 008°37'1 2.9
2018-Feb-21 06:52N 36°48' W 008°36'4 3.7
2018-Feb-21 05:51N 36°48' W 008°31'4 8.5
2018-Feb-21 05:25N 36°49' W 008°27'4 8.4
2018-Feb-21 05:00N 36°50' W 008°23'4 8.5
2018-Feb-21 04:29N 36°51' W 008°17'4 9.0
2018-Feb-21 04:00N 36°52' W 008°12'4 8.9
2018-Feb-21 03:30N 36°53' W 008°07'5 0.4
2018-Feb-20 15:13N 36°49' W 008°08'1 2.6
2018-Feb-20 15:00N 36°49' W 008°09'11 2.7
2018-Feb-20 10:51N 36°48' W 008°23'1 2.5
2018-Feb-20 10:30N 36°48' W 008°22'5 3.1
2018-Feb-20 09:00N 36°48' W 008°16'2 3.0
2018-Feb-20 08:29N 36°48' W 008°14'1 3.1
2018-Feb-20 08:00N 36°48' W 008°12'24 3.5
2018-Feb-20 01:09N 36°47' W 008°42'0 0.3
2018-Feb-20 00:42N 36°47' W 008°42'1 3.0
2018-Feb-20 00:28N 36°47' W 008°42'8 1.7
2018-Feb-19 19:45N 36°47' W 008°32'2 8.0
2018-Feb-19 19:28N 36°47' W 008°29'5 3.2
2018-Feb-19 17:52N 36°48' W 008°23'1 3.0
2018-Feb-19 17:30N 36°48' W 008°21'2 3.0
2018-Feb-19 17:00N 36°48' W 008°19'2 3.1
2018-Feb-19 16:17N 36°48' W 008°17'1 3.0
2018-Feb-19 16:00N 36°48' W 008°16'2 3.1
2018-Feb-19 15:30N 36°48' W 008°14'2 3.1
2018-Feb-19 15:00N 36°48' W 008°12'3 0.4
2018-Feb-19 07:50N 36°47' W 008°15'8 0.6
2018-Feb-18 17:19N 36°50' W 008°06'0 0.8
2018-Feb-18 17:00N 36°49' W 008°05'2 3.1
2018-Feb-18 16:30N 36°50' W 008°03'1 0.0
2018-Feb-17 17:55N 36°50' W 008°04'1 0.1
2018-Feb-17 09:07N 36°49' W 008°05'3 0.1
2018-Feb-16 10:10N 36°50' W 008°01'  
Track history (hours):
 
Tides and Currents Weather Stations Pressure Air Temp Water Temp Dewpoint Dewpoint Depression Visibility Wind Speed Wind Dir Waves Ship Positions

Nuno Pinto

Last reported at 2018-Feb-25 09:45 UTC. Time now 2018-Feb-25 16:05 UTC.
Position N 36°47' W 008°16'.

Length 23 m.

Type: Fishing. MMSI: 263401250.

Date/timePositionNaut miles runAvg speedWind from/ knotsBaromVisibWave heightAir tempDewpointWater temp
2018-Feb-25 09:45N 36°47' W 008°16'1 3.3
2018-Feb-25 09:23N 36°48' W 008°14'2 3.3
2018-Feb-25 08:41N 36°48' W 008°11'2 3.2
2018-Feb-25 08:08N 36°48' W 008°09'1 3.6
2018-Feb-25 07:59N 36°48' W 008°08'0 0.0
2018-Feb-23 04:12N 36°48' W 008°09'3 8.8
2018-Feb-23 03:50N 36°50' W 008°12'3 8.8
2018-Feb-23 03:30N 36°52' W 008°14'4 8.9
2018-Feb-23 03:00N 36°55' W 008°18'5 9.1
2018-Feb-23 02:30N 36°58' W 008°22'5 9.1
2018-Feb-23 02:00N 37°02' W 008°27'6 9.1
2018-Feb-23 01:21N 37°06' W 008°32'2 5.0
2018-Feb-23 00:57N 37°08' W 008°32'0 0.0
2018-Feb-23 00:28N 37°08' W 008°32'0 0.0
2018-Feb-22 23:59N 37°08' W 008°32'0 0.0
2018-Feb-22 23:29N 37°08' W 008°32'0 0.1
2018-Feb-22 23:00N 37°08' W 008°32'0 0.0
2018-Feb-22 22:30N 37°08' W 008°32'0 0.0
2018-Feb-22 22:00N 37°08' W 008°32'0 0.0
2018-Feb-22 21:30N 37°08' W 008°32'0 0.0
2018-Feb-22 21:00N 37°08' W 008°32'0 0.0
2018-Feb-22 20:30N 37°08' W 008°32'0 0.0
2018-Feb-22 20:00N 37°08' W 008°32'0 0.0
2018-Feb-22 19:30N 37°08' W 008°32'0 0.1
2018-Feb-22 19:00N 37°08' W 008°32'0 0.0
2018-Feb-22 18:30N 37°08' W 008°32'0 0.0
2018-Feb-22 18:00N 37°08' W 008°32'0 0.0
2018-Feb-22 17:30N 37°08' W 008°32'1 1.5
2018-Feb-22 17:00N 37°07' W 008°32'5 9.1
2018-Feb-22 16:30N 37°04' W 008°35'5 9.3
2018-Feb-22 16:00N 37°00' W 008°39'5 9.3
2018-Feb-22 15:30N 36°57' W 008°43'7 9.1
2018-Feb-22 14:46N 36°51' W 008°48'2 4.0
2018-Feb-22 14:14N 36°50' W 008°50'0 0.7
2018-Feb-22 13:59N 36°50' W 008°49'4 2.7
2018-Feb-22 12:36N 36°49' W 008°45'1 9.3
2018-Feb-22 12:30N 36°49' W 008°44'3 0.3
2018-Feb-22 04:56N 36°47' W 008°46'2 3.1
2018-Feb-22 04:28N 36°47' W 008°44'3 0.1
2018-Feb-21 09:36N 36°49' W 008°46'0 3.0
2018-Feb-21 09:29N 36°49' W 008°46'2 3.1
2018-Feb-21 09:00N 36°49' W 008°44'2 3.3
2018-Feb-21 08:29N 36°48' W 008°42'2 3.2
2018-Feb-21 08:00N 36°48' W 008°40'2 3.0
2018-Feb-21 07:11N 36°48' W 008°37'1 2.9
2018-Feb-21 06:52N 36°48' W 008°36'4 3.7
2018-Feb-21 05:51N 36°48' W 008°31'4 8.5
2018-Feb-21 05:25N 36°49' W 008°27'4 8.4
2018-Feb-21 05:00N 36°50' W 008°23'4 8.5
2018-Feb-21 04:29N 36°51' W 008°17'4 9.0
2018-Feb-21 04:00N 36°52' W 008°12'4 8.9
2018-Feb-21 03:30N 36°53' W 008°07'5 0.4
2018-Feb-20 15:13N 36°49' W 008°08'1 2.6
2018-Feb-20 15:00N 36°49' W 008°09'11 2.7
2018-Feb-20 10:51N 36°48' W 008°23'1 2.5
2018-Feb-20 10:30N 36°48' W 008°22'5 3.1
2018-Feb-20 09:00N 36°48' W 008°16'2 3.0
2018-Feb-20 08:29N 36°48' W 008°14'1 3.1
2018-Feb-20 08:00N 36°48' W 008°12'24 3.5
2018-Feb-20 01:09N 36°47' W 008°42'0 0.3
2018-Feb-20 00:42N 36°47' W 008°42'1 3.0
2018-Feb-20 00:28N 36°47' W 008°42'8 1.7
2018-Feb-19 19:45N 36°47' W 008°32'2 8.0
2018-Feb-19 19:28N 36°47' W 008°29'5 3.2
2018-Feb-19 17:52N 36°48' W 008°23'1 3.0
2018-Feb-19 17:30N 36°48' W 008°21'2 3.0
2018-Feb-19 17:00N 36°48' W 008°19'2 3.1
2018-Feb-19 16:17N 36°48' W 008°17'1 3.0
2018-Feb-19 16:00N 36°48' W 008°16'2 3.1
2018-Feb-19 15:30N 36°48' W 008°14'2 3.1
2018-Feb-19 15:00N 36°48' W 008°12'3 0.4
2018-Feb-19 07:50N 36°47' W 008°15'8 0.6
2018-Feb-18 17:19N 36°50' W 008°06'0 0.8
2018-Feb-18 17:00N 36°49' W 008°05'2 3.1
2018-Feb-18 16:30N 36°50' W 008°03'1 0.0
2018-Feb-17 17:55N 36°50' W 008°04'1 0.1
2018-Feb-17 09:07N 36°49' W 008°05'3 0.1
2018-Feb-16 10:10N 36°50' W 008°01'  

Dump ship's entire track history